La Grange, MO

5:53 PM CST on February 08, 2016 (GMT -0600)
La Grange | | Change Station
CLOSE
Current Station
Personal Weather Station
Location: La Grange, MO
Elevation: 597 ft
Nearby Weather Stations

Elev 597 ft 40.04 °N, 91.50 °W | Updated 8 minutes ago

Snow
Snow
20.1 °F
Feels Like 8 °F
N
11.4
Wind Variable Wind from West

Today
High -- | Low -- °F
--% Chance of Precip.
Yesterday
High -- | Low -- °F
Precip. -- in
Pressure 29.94 in
Visibility 7.0 miles
Clouds Few 3000 ft
Mostly Cloudy 3600 ft
Overcast 4300 ft
Windchill 8 °F
Dew Point 12 °F
Humidity 70%
Rainfall 0.00 in
Snow Depth Not available.
7:07 AM 5:33 PM
New Moon, 0% visible
SPECI KUIN 082350Z AUTO 31017KT 7SM FEW030 BKN036 OVC043 M07/M12 A2994 RMK AO2 PK WND 31030/2323 UPB34E36SNE34B36E46 P0000
Pressure 29.94 in
Visibility 7.0 miles
Clouds Few 3000 ft
Mostly Cloudy 3600 ft
Overcast 4300 ft
Windchill 8 °F
Dew Point 12 °F
Humidity 70%
Rainfall 0.00 in
Snow Depth Not available.
7:07 AM 5:33 PM
New Moon, 0% visible
SPECI KUIN 082350Z AUTO 31017KT 7SM FEW030 BKN036 OVC043 M07/M12 A2994 RMK AO2 PK WND 31030/2323 UPB34E36SNE34B36E46 P0000

10-Day Weather Forecast

Almanac

Astronomy

Feb. 08, 2016 Rise Set
Actual Time
Civil Twilight
Nautical Twilight
Astronomical Twilight
Moon
Length of Visible Light
Length of Day
Tomorrow will be .
, % of the Moon is Illuminated

Today's Extremes

State Highs State Lows

Community

WunderPhotos

Upload Photos

1,891,527 photos uploaded!

WunderBlog® & News

Nearby

Air Quality

  Air Quality AQ Index Pollutant
Not available.

Snow Depth

Station Depth Elevation

Earthquake Activity

City Distance Mag. Time & Date
Minimum magnitude displayed is 2.5.

Coastal Water Temperatures

Place Temperature

Stations

Nearby Weather Stations

Station Location Temp. Windchill Dew Point Humidity Wind Precip. Elev Updated Type
                   

Watches & Warnings

There are currently no watches in effect.